sensor_id;sensor_type;location;lat;lon;timestamp;pressure;altitude;pressure_sealevel;temperature;humidity
13486;BME280;6815;59.336;17.998;2024-02-28T00:02:09;91526.97;;;-145.37;89.37
13486;BME280;6815;59.336;17.998;2024-02-28T00:04:35;91395.72;;;-145.37;89.24
13486;BME280;6815;59.336;17.998;2024-02-28T00:07:00;91500.72;;;-145.37;89.31
13486;BME280;6815;59.336;17.998;2024-02-28T00:09:26;91569.38;;;-145.37;89.42
13486;BME280;6815;59.336;17.998;2024-02-28T00:11:52;91319.00;;;-145.37;89.17
13486;BME280;6815;59.336;17.998;2024-02-28T00:14:19;91407.84;;;-145.37;89.23
13486;BME280;6815;59.336;17.998;2024-02-28T00:16:46;91424.00;;;-145.37;89.55
13486;BME280;6815;59.336;17.998;2024-02-28T00:19:12;91514.84;;;-145.37;89.48
13486;BME280;6815;59.336;17.998;2024-02-28T00:21:38;91341.19;;;-145.37;89.97
13486;BME280;6815;59.336;17.998;2024-02-28T00:24:04;91401.78;;;-145.37;89.67
13486;BME280;6815;59.336;17.998;2024-02-28T00:26:31;91421.97;;;-145.37;89.88
13486;BME280;6815;59.336;17.998;2024-02-28T00:28:57;91514.84;;;-145.37;89.57
13486;BME280;6815;59.336;17.998;2024-02-28T00:31:22;91450.25;;;-145.37;89.53
13486;BME280;6815;59.336;17.998;2024-02-28T00:33:48;91898.53;;;-145.37;89.06
13486;BME280;6815;59.336;17.998;2024-02-28T00:36:14;91539.09;;;-145.37;89.29
13486;BME280;6815;59.336;17.998;2024-02-28T00:38:41;91274.56;;;-145.37;89.39
13486;BME280;6815;59.336;17.998;2024-02-28T00:41:07;91563.31;;;-145.37;89.43
13486;BME280;6815;59.336;17.998;2024-02-28T00:43:34;91547.16;;;-145.37;89.16
13486;BME280;6815;59.336;17.998;2024-02-28T00:46:00;91593.59;;;-145.37;88.56
13486;BME280;6815;59.336;17.998;2024-02-28T00:48:26;91492.63;;;-145.37;88.83
13486;BME280;6815;59.336;17.998;2024-02-28T00:50:52;91545.16;;;-145.37;89.03
13486;BME280;6815;59.336;17.998;2024-02-28T00:53:18;91529.00;;;-145.37;89.47
13486;BME280;6815;59.336;17.998;2024-02-28T00:55:43;91456.28;;;-145.37;88.91
13486;BME280;6815;59.336;17.998;2024-02-28T00:58:10;91579.47;;;-145.37;89.06
13486;BME280;6815;59.336;17.998;2024-02-28T01:00:35;91549.19;;;-145.37;88.67
13486;BME280;6815;59.336;17.998;2024-02-28T01:03:01;91846.03;;;-145.37;88.75
13486;BME280;6815;59.336;17.998;2024-02-28T01:05:29;91504.75;;;-145.37;89.04
13486;BME280;6815;59.336;17.998;2024-02-28T01:07:54;91567.34;;;-145.37;89.77
13486;BME280;6815;59.336;17.998;2024-02-28T01:10:20;91444.19;;;-145.37;89.19
13486;BME280;6815;59.336;17.998;2024-02-28T01:12:45;91385.63;;;-145.37;89.37
13486;BME280;6815;59.336;17.998;2024-02-28T01:15:11;91484.56;;;-145.37;88.97
13486;BME280;6815;59.336;17.998;2024-02-28T01:17:36;91565.34;;;-145.37;88.82
13486;BME280;6815;59.336;17.998;2024-02-28T01:20:02;91442.16;;;-145.37;89.35
13486;BME280;6815;59.336;17.998;2024-02-28T01:22:27;92011.63;;;-145.37;89.09
13486;BME280;6815;59.336;17.998;2024-02-28T01:24:53;91274.56;;;-145.37;88.65
13486;BME280;6815;59.336;17.998;2024-02-28T01:27:18;91442.16;;;-145.37;88.20
13486;BME280;6815;59.336;17.998;2024-02-28T01:29:43;91365.44;;;-145.37;87.43
13486;BME280;6815;59.336;17.998;2024-02-28T01:32:09;91478.50;;;-145.37;87.69
13486;BME280;6815;59.336;17.998;2024-02-28T01:34:34;92031.84;;;-145.37;87.85
13486;BME280;6815;59.336;17.998;2024-02-28T01:37:00;91183.72;;;-145.37;87.38
13486;BME280;6815;59.336;17.998;2024-02-28T01:39:25;91565.34;;;-145.37;87.71
13486;BME280;6815;59.336;17.998;2024-02-28T01:41:54;91587.56;;;-145.37;87.77
13486;BME280;6815;59.336;17.998;2024-02-28T01:44:20;91561.31;;;-145.37;87.68
13486;BME280;6815;59.336;17.998;2024-02-28T01:46:46;91541.09;;;-145.37;87.42
13486;BME280;6815;59.336;17.998;2024-02-28T01:49:12;91577.44;;;-145.37;87.09
13486;BME280;6815;59.336;17.998;2024-02-28T01:51:39;91458.31;;;-145.37;87.87
13486;BME280;6815;59.336;17.998;2024-02-28T01:54:05;91591.59;;;-145.37;87.88
13486;BME280;6815;59.336;17.998;2024-02-28T01:56:31;91448.22;;;-145.37;88.25
13486;BME280;6815;59.336;17.998;2024-02-28T01:58:57;91508.78;;;-145.37;88.39
13486;BME280;6815;59.336;17.998;2024-02-28T02:01:23;91529.00;;;-145.37;88.48
13486;BME280;6815;59.336;17.998;2024-02-28T02:03:49;91526.97;;;-145.37;88.73
13486;BME280;6815;59.336;17.998;2024-02-28T02:06:14;91518.91;;;-145.37;88.95
13486;BME280;6815;59.336;17.998;2024-02-28T02:08:41;91551.19;;;-145.37;89.24
13486;BME280;6815;59.336;17.998;2024-02-28T02:11:13;91575.44;;;-145.37;89.30
13486;BME280;6815;59.336;17.998;2024-02-28T02:13:53;92195.41;;;-145.37;89.17
13486;BME280;6815;59.336;17.998;2024-02-28T02:16:20;91209.97;;;-145.37;89.44
13486;BME280;6815;59.336;17.998;2024-02-28T02:18:48;91609.75;;;-145.37;89.61
13486;BME280;6815;59.336;17.998;2024-02-28T02:21:18;91565.34;;;-145.37;89.87
13486;BME280;6815;59.336;17.998;2024-02-28T02:23:45;91571.41;;;-145.37;89.83
13486;BME280;6815;59.336;17.998;2024-02-28T02:26:10;91407.84;;;-145.37;89.60
13486;BME280;6815;59.336;17.998;2024-02-28T02:28:36;91563.31;;;-145.37;90.11
13486;BME280;6815;59.336;17.998;2024-02-28T02:31:01;91228.13;;;-145.37;89.82
13486;BME280;6815;59.336;17.998;2024-02-28T02:33:27;91569.38;;;-145.37;90.28
13486;BME280;6815;59.336;17.998;2024-02-28T02:35:53;91432.06;;;-145.37;90.17
13486;BME280;6815;59.336;17.998;2024-02-28T02:38:19;91597.66;;;-145.37;90.33
13486;BME280;6815;59.336;17.998;2024-02-28T02:40:51;91577.44;;;-145.37;90.30
13486;BME280;6815;59.336;17.998;2024-02-28T02:43:17;91599.66;;;-145.37;90.13
13486;BME280;6815;59.336;17.998;2024-02-28T02:45:42;91486.59;;;-145.37;91.12
13486;BME280;6815;59.336;17.998;2024-02-28T02:48:09;91625.91;;;-145.37;90.58
13486;BME280;6815;59.336;17.998;2024-02-28T02:50:35;91603.69;;;-145.37;90.68
13486;BME280;6815;59.336;17.998;2024-02-28T02:53:01;91625.91;;;-145.37;90.88
13486;BME280;6815;59.336;17.998;2024-02-28T02:55:27;91230.16;;;-145.37;91.05
13486;BME280;6815;59.336;17.998;2024-02-28T02:57:52;91323.03;;;-145.37;91.32
13486;BME280;6815;59.336;17.998;2024-02-28T03:00:18;91472.44;;;-145.37;91.13
13486;BME280;6815;59.336;17.998;2024-02-28T03:02:43;91428.03;;;-145.37;91.11
13486;BME280;6815;59.336;17.998;2024-02-28T03:05:10;91302.84;;;-145.37;91.78
13486;BME280;6815;59.336;17.998;2024-02-28T03:07:35;91312.94;;;-145.37;91.80
13486;BME280;6815;59.336;17.998;2024-02-28T03:10:01;92278.22;;;-145.37;92.18
13486;BME280;6815;59.336;17.998;2024-02-28T03:12:28;91605.72;;;-145.37;91.66
13486;BME280;6815;59.336;17.998;2024-02-28T03:14:53;91359.38;;;-145.37;91.60
13486;BME280;6815;59.336;17.998;2024-02-28T03:17:19;91589.56;;;-145.37;91.59
13486;BME280;6815;59.336;17.998;2024-02-28T03:19:44;91959.13;;;-145.37;91.12
13486;BME280;6815;59.336;17.998;2024-02-28T03:22:12;91464.38;;;-145.37;91.73
13486;BME280;6815;59.336;17.998;2024-02-28T03:24:38;91613.81;;;-145.37;91.47
13486;BME280;6815;59.336;17.998;2024-02-28T03:27:04;91567.34;;;-145.37;90.96
13486;BME280;6815;59.336;17.998;2024-02-28T03:29:30;91577.44;;;-145.37;91.75
13486;BME280;6815;59.336;17.998;2024-02-28T03:31:57;91516.88;;;-145.37;92.14
13486;BME280;6815;59.336;17.998;2024-02-28T03:34:22;91151.41;;;-145.37;91.87
13486;BME280;6815;59.336;17.998;2024-02-28T03:36:48;91553.22;;;-145.37;91.89
13486;BME280;6815;59.336;17.998;2024-02-28T03:39:13;92009.63;;;-145.37;91.61
13486;BME280;6815;59.336;17.998;2024-02-28T03:41:39;91442.16;;;-145.37;92.04
13486;BME280;6815;59.336;17.998;2024-02-28T03:44:04;91565.34;;;-145.37;92.20
13486;BME280;6815;59.336;17.998;2024-02-28T03:46:30;91490.63;;;-145.37;91.94
13486;BME280;6815;59.336;17.998;2024-02-28T03:48:55;91531.00;;;-145.37;91.84
13486;BME280;6815;59.336;17.998;2024-02-28T03:51:21;91484.56;;;-145.37;92.14
13486;BME280;6815;59.336;17.998;2024-02-28T03:53:47;91222.06;;;-145.37;92.51
13486;BME280;6815;59.336;17.998;2024-02-28T03:56:13;91569.38;;;-145.37;92.40
13486;BME280;6815;59.336;17.998;2024-02-28T03:58:40;91450.25;;;-145.37;92.12
13486;BME280;6815;59.336;17.998;2024-02-28T04:01:05;91199.88;;;-145.37;92.12
13486;BME280;6815;59.336;17.998;2024-02-28T04:03:31;91579.47;;;-145.37;91.94
13486;BME280;6815;59.336;17.998;2024-02-28T04:05:57;91605.72;;;-145.37;92.05
13486;BME280;6815;59.336;17.998;2024-02-28T04:08:22;91597.66;;;-145.37;92.14
13486;BME280;6815;59.336;17.998;2024-02-28T04:10:47;91450.25;;;-145.37;92.06
13486;BME280;6815;59.336;17.998;2024-02-28T04:13:15;92019.72;;;-145.37;92.26
13486;BME280;6815;59.336;17.998;2024-02-28T04:15:40;91989.41;;;-145.37;92.04
13486;BME280;6815;59.336;17.998;2024-02-28T04:18:06;91617.84;;;-145.37;91.90
13486;BME280;6815;59.336;17.998;2024-02-28T04:20:32;91609.75;;;-145.37;92.18
13486;BME280;6815;59.336;17.998;2024-02-28T04:22:57;91258.41;;;-145.37;91.64
13486;BME280;6815;59.336;17.998;2024-02-28T04:25:23;91549.19;;;-145.37;92.25
13486;BME280;6815;59.336;17.998;2024-02-28T04:27:48;92074.25;;;-145.37;91.92
13486;BME280;6815;59.336;17.998;2024-02-28T04:30:14;91617.84;;;-145.37;92.40
13486;BME280;6815;59.336;17.998;2024-02-28T04:32:40;91573.41;;;-145.37;92.26
13486;BME280;6815;59.336;17.998;2024-02-28T04:35:05;91470.44;;;-145.37;93.59
13486;BME280;6815;59.336;17.998;2024-02-28T04:37:31;91314.94;;;-145.37;92.86
13486;BME280;6815;59.336;17.998;2024-02-28T04:39:57;91573.41;;;-145.37;92.57
13486;BME280;6815;59.336;17.998;2024-02-28T04:42:22;91484.56;;;-145.37;93.11
13486;BME280;6815;59.336;17.998;2024-02-28T04:44:48;91636.00;;;-145.37;92.73
13486;BME280;6815;59.336;17.998;2024-02-28T04:47:13;91434.09;;;-145.37;92.52
13486;BME280;6815;59.336;17.998;2024-02-28T04:49:39;91514.84;;;-145.37;92.52
13486;BME280;6815;59.336;17.998;2024-02-28T04:52:06;91593.59;;;-145.37;92.62
13486;BME280;6815;59.336;17.998;2024-02-28T04:54:32;92138.88;;;-145.37;92.79
13486;BME280;6815;59.336;17.998;2024-02-28T04:56:58;91607.75;;;-145.37;92.97
13486;BME280;6815;59.336;17.998;2024-02-28T04:59:24;91621.88;;;-145.37;92.86
13486;BME280;6815;59.336;17.998;2024-02-28T05:01:49;91587.56;;;-145.37;93.15
13486;BME280;6815;59.336;17.998;2024-02-28T05:04:15;91876.31;;;-145.37;93.14
13486;BME280;6815;59.336;17.998;2024-02-28T05:06:40;91456.28;;;-145.37;93.24
13486;BME280;6815;59.336;17.998;2024-02-28T05:09:07;91575.44;;;-145.37;93.18
13486;BME280;6815;59.336;17.998;2024-02-28T05:11:32;91619.84;;;-145.37;93.34
13486;BME280;6815;59.336;17.998;2024-02-28T05:13:59;91537.06;;;-145.37;93.31
13486;BME280;6815;59.336;17.998;2024-02-28T05:16:24;91617.84;;;-145.37;92.99
13486;BME280;6815;59.336;17.998;2024-02-28T05:18:50;91533.03;;;-145.37;93.09
13486;BME280;6815;59.336;17.998;2024-02-28T05:21:15;91587.56;;;-145.37;92.64
13486;BME280;6815;59.336;17.998;2024-02-28T05:23:41;91609.75;;;-145.37;92.57
13486;BME280;6815;59.336;17.998;2024-02-28T05:26:06;91456.28;;;-145.37;92.50
13486;BME280;6815;59.336;17.998;2024-02-28T05:28:35;91421.97;;;-145.37;92.60
13486;BME280;6815;59.336;17.998;2024-02-28T05:31:23;91613.81;;;-145.37;92.16
13486;BME280;6815;59.336;17.998;2024-02-28T05:33:54;91593.59;;;-145.37;92.54
13486;BME280;6815;59.336;17.998;2024-02-28T05:36:21;91591.59;;;-145.37;92.54
13486;BME280;6815;59.336;17.998;2024-02-28T05:38:47;91617.84;;;-145.37;93.12
13486;BME280;6815;59.336;17.998;2024-02-28T05:41:13;91591.59;;;-145.37;93.11
13486;BME280;6815;59.336;17.998;2024-02-28T05:43:40;91508.78;;;-145.37;92.80
13486;BME280;6815;59.336;17.998;2024-02-28T05:46:05;91607.75;;;-145.37;92.68
13486;BME280;6815;59.336;17.998;2024-02-28T05:48:31;91436.09;;;-145.37;92.87
13486;BME280;6815;59.336;17.998;2024-02-28T05:50:56;91597.66;;;-145.37;93.22
13486;BME280;6815;59.336;17.998;2024-02-28T05:53:22;91603.69;;;-145.37;92.97
13486;BME280;6815;59.336;17.998;2024-02-28T05:55:52;91537.06;;;-145.37;92.77
13486;BME280;6815;59.336;17.998;2024-02-28T05:58:19;91629.97;;;-145.37;92.74
13486;BME280;6815;59.336;17.998;2024-02-28T06:00:44;91545.16;;;-145.37;92.32
13486;BME280;6815;59.336;17.998;2024-02-28T06:03:10;91579.47;;;-145.37;92.45
13486;BME280;6815;59.336;17.998;2024-02-28T06:05:35;91599.66;;;-145.37;93.08
13486;BME280;6815;59.336;17.998;2024-02-28T06:08:00;91601.69;;;-145.37;92.77
13486;BME280;6815;59.336;17.998;2024-02-28T06:10:26;91619.84;;;-145.37;93.05
13486;BME280;6815;59.336;17.998;2024-02-28T06:12:51;91565.34;;;-145.37;92.88
13486;BME280;6815;59.336;17.998;2024-02-28T06:15:17;91583.50;;;-145.37;92.82
13486;BME280;6815;59.336;17.998;2024-02-28T06:17:42;91634.00;;;-145.37;93.19
13486;BME280;6815;59.336;17.998;2024-02-28T06:20:08;91613.81;;;-145.37;92.96
13486;BME280;6815;59.336;17.998;2024-02-28T06:22:33;91650.16;;;-145.37;93.30
13486;BME280;6815;59.336;17.998;2024-02-28T06:24:59;91541.09;;;-145.37;93.18
13486;BME280;6815;59.336;17.998;2024-02-28T06:27:24;91611.78;;;-145.37;93.56
13486;BME280;6815;59.336;17.998;2024-02-28T06:29:51;91640.06;;;-145.37;93.81
13486;BME280;6815;59.336;17.998;2024-02-28T06:32:17;91617.84;;;-145.37;93.12
13486;BME280;6815;59.336;17.998;2024-02-28T06:34:42;91621.88;;;-145.37;93.31
13486;BME280;6815;59.336;17.998;2024-02-28T06:37:07;91589.56;;;-145.37;92.78
13486;BME280;6815;59.336;17.998;2024-02-28T06:39:33;91460.34;;;-145.37;92.65
13486;BME280;6815;59.336;17.998;2024-02-28T06:41:58;91537.06;;;-145.37;92.82
13486;BME280;6815;59.336;17.998;2024-02-28T06:44:24;91452.25;;;-145.37;92.51
13486;BME280;6815;59.336;17.998;2024-02-28T06:46:49;91623.91;;;-145.37;92.68
13486;BME280;6815;59.336;17.998;2024-02-28T06:49:15;91563.31;;;-145.37;92.67
13486;BME280;6815;59.336;17.998;2024-02-28T06:51:41;91623.91;;;-145.37;92.38
13486;BME280;6815;59.336;17.998;2024-02-28T06:54:07;91615.81;;;-145.37;92.39
13486;BME280;6815;59.336;17.998;2024-02-28T06:56:32;91627.94;;;-145.37;92.05
13486;BME280;6815;59.336;17.998;2024-02-28T06:58:57;91591.59;;;-145.37;92.03
13486;BME280;6815;59.336;17.998;2024-02-28T07:01:23;91648.13;;;-145.37;91.78
13486;BME280;6815;59.336;17.998;2024-02-28T07:03:50;91583.50;;;-145.37;91.48
13486;BME280;6815;59.336;17.998;2024-02-28T07:06:15;91559.28;;;-145.37;91.78
13486;BME280;6815;59.336;17.998;2024-02-28T07:08:41;91569.38;;;-145.37;91.62
13486;BME280;6815;59.336;17.998;2024-02-28T07:11:13;91613.81;;;-145.37;91.81
13486;BME280;6815;59.336;17.998;2024-02-28T07:13:39;91585.53;;;-145.37;91.41
13486;BME280;6815;59.336;17.998;2024-02-28T07:16:05;91613.81;;;-145.37;91.61
13486;BME280;6815;59.336;17.998;2024-02-28T07:18:31;91585.53;;;-145.37;91.33
13486;BME280;6815;59.336;17.998;2024-02-28T07:20:57;91621.88;;;-145.37;91.40
13486;BME280;6815;59.336;17.998;2024-02-28T07:23:23;91589.56;;;-145.37;91.52
13486;BME280;6815;59.336;17.998;2024-02-28T07:25:48;91436.09;;;-145.37;91.20
13486;BME280;6815;59.336;17.998;2024-02-28T07:28:13;91605.72;;;-145.37;90.93
13486;BME280;6815;59.336;17.998;2024-02-28T07:30:39;91589.56;;;-145.37;90.99
13486;BME280;6815;59.336;17.998;2024-02-28T07:33:07;92011.63;;;-145.37;90.89
13486;BME280;6815;59.336;17.998;2024-02-28T07:35:44;91634.00;;;-145.37;90.68
13486;BME280;6815;59.336;17.998;2024-02-28T07:38:09;91551.19;;;-145.37;90.22
13486;BME280;6815;59.336;17.998;2024-02-28T07:40:35;91585.53;;;-145.37;90.35
13486;BME280;6815;59.336;17.998;2024-02-28T07:43:00;91535.03;;;-145.37;90.07
13486;BME280;6815;59.336;17.998;2024-02-28T07:45:25;91686.50;;;-145.37;90.00
13486;BME280;6815;59.336;17.998;2024-02-28T07:47:51;91607.75;;;-145.37;89.97
13486;BME280;6815;59.336;17.998;2024-02-28T07:50:16;91430.03;;;-145.37;89.94
13486;BME280;6815;59.336;17.998;2024-02-28T07:52:42;91605.72;;;-145.37;90.13
13486;BME280;6815;59.336;17.998;2024-02-28T07:55:08;91504.75;;;-145.37;89.42
13486;BME280;6815;59.336;17.998;2024-02-28T07:57:33;91597.66;;;-145.37;89.91
13486;BME280;6815;59.336;17.998;2024-02-28T07:59:59;92108.56;;;-145.37;89.69
13486;BME280;6815;59.336;17.998;2024-02-28T08:02:24;91482.53;;;-145.37;89.38
13486;BME280;6815;59.336;17.998;2024-02-28T08:04:50;91601.69;;;-145.37;89.23
13486;BME280;6815;59.336;17.998;2024-02-28T08:07:16;91430.03;;;-145.37;89.03
13486;BME280;6815;59.336;17.998;2024-02-28T08:09:41;91462.34;;;-145.37;89.00
13486;BME280;6815;59.336;17.998;2024-02-28T08:12:07;91541.09;;;-145.37;88.82
13486;BME280;6815;59.336;17.998;2024-02-28T08:14:32;91543.13;;;-145.37;88.49
13486;BME280;6815;59.336;17.998;2024-02-28T08:16:58;91577.44;;;-145.37;88.76
13486;BME280;6815;59.336;17.998;2024-02-28T08:19:23;91533.03;;;-145.37;88.66
13486;BME280;6815;59.336;17.998;2024-02-28T08:21:48;91801.59;;;-145.37;88.83
13486;BME280;6815;59.336;17.998;2024-02-28T08:24:15;91367.44;;;-145.37;88.70
13486;BME280;6815;59.336;17.998;2024-02-28T08:26:40;91522.94;;;-145.37;88.40
13486;BME280;6815;59.336;17.998;2024-02-28T08:29:07;91561.31;;;-145.37;88.76
13486;BME280;6815;59.336;17.998;2024-02-28T08:31:33;91549.19;;;-145.37;88.54
13486;BME280;6815;59.336;17.998;2024-02-28T08:33:58;91581.50;;;-145.37;88.75
13486;BME280;6815;59.336;17.998;2024-02-28T08:36:23;91557.25;;;-145.37;88.90
13486;BME280;6815;59.336;17.998;2024-02-28T08:38:49;91555.25;;;-145.37;88.87
13486;BME280;6815;59.336;17.998;2024-02-28T08:41:16;91791.50;;;-145.37;88.63
13486;BME280;6815;59.336;17.998;2024-02-28T08:43:42;91539.09;;;-145.37;89.00
13486;BME280;6815;59.336;17.998;2024-02-28T08:46:08;91535.03;;;-145.37;89.51
13486;BME280;6815;59.336;17.998;2024-02-28T08:48:33;91597.66;;;-145.37;89.52
13486;BME280;6815;59.336;17.998;2024-02-28T08:50:59;91508.78;;;-145.37;89.34
13486;BME280;6815;59.336;17.998;2024-02-28T08:53:24;91484.56;;;-145.37;89.73
13486;BME280;6815;59.336;17.998;2024-02-28T08:55:50;91480.53;;;-145.37;89.35
13486;BME280;6815;59.336;17.998;2024-02-28T08:58:16;91549.19;;;-145.37;89.07
13486;BME280;6815;59.336;17.998;2024-02-28T09:00:41;91494.66;;;-145.37;89.06
13486;BME280;6815;59.336;17.998;2024-02-28T09:03:07;91524.94;;;-145.37;89.22
13486;BME280;6815;59.336;17.998;2024-02-28T09:05:32;91551.19;;;-145.37;89.27
13486;BME280;6815;59.336;17.998;2024-02-28T09:07:58;91561.31;;;-145.37;89.62
13486;BME280;6815;59.336;17.998;2024-02-28T09:10:23;91549.19;;;-145.37;89.38
13486;BME280;6815;59.336;17.998;2024-02-28T09:12:50;91545.16;;;-145.37;89.09
13486;BME280;6815;59.336;17.998;2024-02-28T09:15:15;91547.16;;;-145.37;89.28
13486;BME280;6815;59.336;17.998;2024-02-28T09:17:43;91454.28;;;-145.37;89.09
13486;BME280;6815;59.336;17.998;2024-02-28T09:20:09;91539.09;;;-145.37;89.37
13486;BME280;6815;59.336;17.998;2024-02-28T09:22:34;91565.34;;;-145.37;89.43
13486;BME280;6815;59.336;17.998;2024-02-28T09:25:00;91577.44;;;-145.37;89.69
13486;BME280;6815;59.336;17.998;2024-02-28T09:27:30;91868.25;;;-145.37;89.45
13486;BME280;6815;59.336;17.998;2024-02-28T09:29:55;91597.66;;;-145.37;89.90
13486;BME280;6815;59.336;17.998;2024-02-28T09:32:21;91559.28;;;-145.37;89.16
13486;BME280;6815;59.336;17.998;2024-02-28T09:34:46;91541.09;;;-145.37;89.05
13486;BME280;6815;59.336;17.998;2024-02-28T09:37:14;91526.97;;;-145.37;89.11
13486;BME280;6815;59.336;17.998;2024-02-28T09:39:40;91426.00;;;-145.37;88.95
13486;BME280;6815;59.336;17.998;2024-02-28T09:42:06;91640.06;;;-145.37;88.70
13486;BME280;6815;59.336;17.998;2024-02-28T09:44:34;91533.03;;;-145.37;88.79
13486;BME280;6815;59.336;17.998;2024-02-28T09:46:59;91474.47;;;-145.37;88.90
13486;BME280;6815;59.336;17.998;2024-02-28T09:49:26;91399.75;;;-145.37;88.64
13486;BME280;6815;59.336;17.998;2024-02-28T09:51:52;91520.91;;;-145.37;88.79
13486;BME280;6815;59.336;17.998;2024-02-28T09:54:18;91549.19;;;-145.37;88.65
13486;BME280;6815;59.336;17.998;2024-02-28T09:56:43;91454.28;;;-145.37;88.49
13486;BME280;6815;59.336;17.998;2024-02-28T09:59:10;91585.53;;;-145.37;88.28
13486;BME280;6815;59.336;17.998;2024-02-28T10:01:42;91373.50;;;-145.37;88.32
13486;BME280;6815;59.336;17.998;2024-02-28T10:04:10;91555.25;;;-145.37;88.23
13486;BME280;6815;59.336;17.998;2024-02-28T10:06:41;91444.19;;;-145.37;88.41
13486;BME280;6815;59.336;17.998;2024-02-28T10:09:06;91537.06;;;-145.37;87.96
13486;BME280;6815;59.336;17.998;2024-02-28T10:11:33;91547.16;;;-145.37;87.84
13486;BME280;6815;59.336;17.998;2024-02-28T10:14:00;91569.38;;;-145.37;87.71
13486;BME280;6815;59.336;17.998;2024-02-28T10:16:26;91331.09;;;-145.37;87.31
13486;BME280;6815;59.336;17.998;2024-02-28T10:18:52;91561.31;;;-145.37;86.87
13486;BME280;6815;59.336;17.998;2024-02-28T10:21:18;91571.41;;;-145.37;86.42
13486;BME280;6815;59.336;17.998;2024-02-28T10:23:44;91524.94;;;-145.37;85.52
13486;BME280;6815;59.336;17.998;2024-02-28T10:26:10;91460.34;;;-145.37;84.98
13486;BME280;6815;59.336;17.998;2024-02-28T10:28:39;91553.22;;;-145.37;84.82
13486;BME280;6815;59.336;17.998;2024-02-28T10:31:06;91529.00;;;-145.37;84.62
13486;BME280;6815;59.336;17.998;2024-02-28T10:33:32;91537.06;;;-145.37;84.61
13486;BME280;6815;59.336;17.998;2024-02-28T10:35:59;91512.84;;;-145.37;84.76
13486;BME280;6815;59.336;17.998;2024-02-28T10:38:26;91518.91;;;-145.37;84.37
13486;BME280;6815;59.336;17.998;2024-02-28T10:40:53;91603.69;;;-145.37;84.12
13486;BME280;6815;59.336;17.998;2024-02-28T10:43:19;91537.06;;;-145.37;84.35
13486;BME280;6815;59.336;17.998;2024-02-28T10:45:45;91591.59;;;-145.37;83.97
13486;BME280;6815;59.336;17.998;2024-02-28T10:48:14;91492.63;;;-145.37;83.73
13486;BME280;6815;59.336;17.998;2024-02-28T10:50:46;91490.63;;;-145.37;83.45
13486;BME280;6815;59.336;17.998;2024-02-28T10:53:14;91466.38;;;-145.37;83.51
13486;BME280;6815;59.336;17.998;2024-02-28T10:55:41;91563.31;;;-145.37;83.16
13486;BME280;6815;59.336;17.998;2024-02-28T10:58:07;91466.38;;;-145.37;83.13
13486;BME280;6815;59.336;17.998;2024-02-28T11:00:40;91512.84;;;-145.37;82.90
13486;BME280;6815;59.336;17.998;2024-02-28T11:03:15;91353.31;;;-145.37;82.58
13486;BME280;6815;59.336;17.998;2024-02-28T11:05:43;91510.81;;;-145.37;82.36
13486;BME280;6815;59.336;17.998;2024-02-28T11:08:19;91526.97;;;-145.37;81.85
13486;BME280;6815;59.336;17.998;2024-02-28T11:10:45;91510.81;;;-145.37;81.75
13486;BME280;6815;59.336;17.998;2024-02-28T11:13:23;91529.00;;;-145.37;81.52
13486;BME280;6815;59.336;17.998;2024-02-28T11:15:49;91496.69;;;-145.37;81.26
13486;BME280;6815;59.336;17.998;2024-02-28T11:18:15;91537.06;;;-145.37;81.16
13486;BME280;6815;59.336;17.998;2024-02-28T11:20:40;91456.28;;;-145.37;80.94
13486;BME280;6815;59.336;17.998;2024-02-28T11:23:06;91535.03;;;-145.37;80.90
13486;BME280;6815;59.336;17.998;2024-02-28T11:25:32;91524.94;;;-145.37;80.56
13486;BME280;6815;59.336;17.998;2024-02-28T11:27:57;91419.94;;;-145.37;79.96
13486;BME280;6815;59.336;17.998;2024-02-28T11:30:25;91520.91;;;-145.37;79.31
13486;BME280;6815;59.336;17.998;2024-02-28T11:32:52;91339.19;;;-145.37;79.41
13486;BME280;6815;59.336;17.998;2024-02-28T11:35:18;91767.28;;;-145.37;78.98
13486;BME280;6815;59.336;17.998;2024-02-28T11:37:45;91452.25;;;-145.37;78.81
13486;BME280;6815;59.336;17.998;2024-02-28T11:40:12;91341.19;;;-145.37;79.18
13486;BME280;6815;59.336;17.998;2024-02-28T11:42:38;91492.63;;;-145.37;78.92
13486;BME280;6815;59.336;17.998;2024-02-28T11:45:04;91432.06;;;-145.37;78.31
13486;BME280;6815;59.336;17.998;2024-02-28T11:47:31;91476.50;;;-145.37;78.14
13486;BME280;6815;59.336;17.998;2024-02-28T11:49:59;91353.31;;;-145.37;77.68
13486;BME280;6815;59.336;17.998;2024-02-28T11:52:25;91510.81;;;-145.37;76.74
13486;BME280;6815;59.336;17.998;2024-02-28T11:54:51;91482.53;;;-145.37;77.21
13486;BME280;6815;59.336;17.998;2024-02-28T11:57:17;91510.81;;;-145.37;77.06
13486;BME280;6815;59.336;17.998;2024-02-28T11:59:44;91367.44;;;-145.37;76.99
13486;BME280;6815;59.336;17.998;2024-02-28T12:02:14;91316.97;;;-145.37;76.71
13486;BME280;6815;59.336;17.998;2024-02-28T12:04:41;91361.38;;;-145.37;77.19
13486;BME280;6815;59.336;17.998;2024-02-28T12:07:08;91480.53;;;-145.37;77.27
13486;BME280;6815;59.336;17.998;2024-02-28T12:09:33;92023.75;;;-145.37;77.81
13486;BME280;6815;59.336;17.998;2024-02-28T12:12:02;91325.06;;;-145.37;78.17
13486;BME280;6815;59.336;17.998;2024-02-28T12:14:36;91502.75;;;-145.37;78.34
13486;BME280;6815;59.336;17.998;2024-02-28T12:17:02;91500.72;;;-145.37;78.63
13486;BME280;6815;59.336;17.998;2024-02-28T12:19:28;91470.44;;;-145.37;78.65
13486;BME280;6815;59.336;17.998;2024-02-28T12:21:54;91490.63;;;-145.37;78.74
13486;BME280;6815;59.336;17.998;2024-02-28T12:24:19;91468.41;;;-145.37;78.71
13486;BME280;6815;59.336;17.998;2024-02-28T12:26:45;91714.78;;;-145.37;78.41
13486;BME280;6815;59.336;17.998;2024-02-28T12:29:10;91539.09;;;-145.37;78.74
13486;BME280;6815;59.336;17.998;2024-02-28T12:31:36;91302.84;;;-145.37;78.67
13486;BME280;6815;59.336;17.998;2024-02-28T12:34:02;92146.94;;;-145.37;78.03
13486;BME280;6815;59.336;17.998;2024-02-28T12:36:29;91500.72;;;-145.37;78.34